Time;durP1;ratioP1;P1;durP2;ratioP2;P2;SDS_P1;SDS_P2;PMS_P1;PMS_P2;Temp;Humidity;BMP_temperature;BMP_pressure;BME280_temperature;BME280_humidity;BME280_pressure;Samples;Min_cycle;Max_cycle;Signal;HPM_P1;HPM_P2
2022/02/17 00:00:45;;;;;;;116.55;39.28;;;6.20;91.50;;;;;;5117921;28;20035;-36
2022/02/17 00:03:11;;;;;;;145.43;41.28;;;6.20;91.60;;;;;;5117498;28;20035;-36
2022/02/17 00:05:37;;;;;;;127.97;39.90;;;6.20;91.50;;;;;;5117691;28;20031;-36
2022/02/17 00:08:03;;;;;;;119.15;38.83;;;6.20;91.50;;;;;;5117292;28;20107;-37
2022/02/17 00:10:30;;;;;;;106.43;36.50;;;6.30;91.50;;;;;;5117708;28;20410;-39
2022/02/17 00:12:57;;;;;;;113.38;39.85;;;6.30;91.50;;;;;;5116901;28;20031;-40
2022/02/17 00:15:24;;;;;;;114.03;38.03;;;6.30;91.40;;;;;;5117595;28;20023;-39
2022/02/17 00:17:49;;;;;;;112.38;37.60;;;6.30;91.40;;;;;;5116897;28;20035;-39
2022/02/17 00:20:15;;;;;;;110.22;37.65;;;6.30;91.30;;;;;;5117081;28;20032;-36
2022/02/17 00:22:41;;;;;;;101.75;37.70;;;6.30;91.20;;;;;;5116898;28;20053;-36
2022/02/17 00:25:08;;;;;;;103.60;37.65;;;6.30;91.20;;;;;;5116554;28;20040;-39
2022/02/17 00:27:34;;;;;;;111.07;38.67;;;6.30;91.10;;;;;;5117096;28;20067;-36
2022/02/17 00:30:00;;;;;;;103.20;37.97;;;6.30;91.10;;;;;;5117105;28;20063;-37
2022/02/17 00:32:26;;;;;;;96.25;36.15;;;6.30;91.10;;;;;;5116793;28;20028;-39
2022/02/17 00:34:52;;;;;;;103.38;38.70;;;6.30;91.10;;;;;;5117096;28;20396;-36
2022/02/17 00:37:17;;;;;;;104.85;39.92;;;6.30;91.10;;;;;;5116603;28;20031;-36
2022/02/17 00:39:43;;;;;;;98.20;37.95;;;6.30;91.10;;;;;;5116999;28;20042;-39
2022/02/17 00:42:09;;;;;;;100.57;40.53;;;6.30;91.10;;;;;;5116537;28;20438;-39
2022/02/17 00:44:34;;;;;;;94.60;37.38;;;6.30;91.10;;;;;;5117137;28;20031;-40
2022/02/17 00:47:00;;;;;;;103.05;40.30;;;6.20;91.00;;;;;;5116347;28;20054;-37
2022/02/17 00:49:28;;;;;;;97.82;36.42;;;6.20;91.10;;;;;;5116844;28;20300;-39
2022/02/17 00:51:55;;;;;;;99.63;38.20;;;6.20;91.20;;;;;;5116625;28;20046;-36
2022/02/17 00:54:21;;;;;;;100.18;38.05;;;6.20;91.20;;;;;;5116749;28;20042;-36
2022/02/17 00:56:46;;;;;;;95.50;38.05;;;6.20;91.20;;;;;;5116493;28;20027;-37
2022/02/17 00:59:12;;;;;;;100.43;38.17;;;6.20;91.40;;;;;;5116867;28;20421;-36
2022/02/17 01:01:39;;;;;;;94.10;37.63;;;6.20;91.10;;;;;;5116345;28;20047;-36
2022/02/17 01:04:05;;;;;;;92.47;38.15;;;6.20;91.20;;;;;;5116492;28;20031;-40
2022/02/17 01:06:32;;;;;;;97.68;37.25;;;6.20;91.20;;;;;;5116821;28;20027;-36
2022/02/17 01:08:58;;;;;;;93.85;36.20;;;6.20;91.20;;;;;;5116392;28;20031;-37
2022/02/17 01:11:24;;;;;;;90.70;38.03;;;6.20;91.10;;;;;;5116974;28;20093;-37
2022/02/17 01:13:49;;;;;;;99.15;38.17;;;6.20;91.10;;;;;;5115911;28;20056;-37
2022/02/17 01:16:15;;;;;;;93.55;36.47;;;6.20;91.10;;;;;;5116722;28;20088;-36
2022/02/17 01:18:41;;;;;;;93.72;38.38;;;6.20;91.10;;;;;;5116465;28;20045;-40
2022/02/17 01:21:07;;;;;;;97.07;37.70;;;6.20;91.10;;;;;;5116774;28;20301;-40
2022/02/17 01:23:32;;;;;;;98.38;39.10;;;6.20;91.10;;;;;;5116373;28;20028;-40
2022/02/17 01:25:59;;;;;;;89.90;38.53;;;6.20;91.10;;;;;;5116656;28;20169;-36
2022/02/17 01:28:25;;;;;;;97.63;40.38;;;6.20;91.00;;;;;;5116312;28;20440;-39
2022/02/17 01:30:51;;;;;;;96.25;39.38;;;6.20;91.00;;;;;;5116572;28;20035;-36
2022/02/17 01:33:16;;;;;;;85.93;36.55;;;6.20;91.00;;;;;;5116351;28;20296;-40
2022/02/17 01:35:42;;;;;;;97.38;38.72;;;6.20;91.10;;;;;;5116332;28;20034;-39
2022/02/17 01:38:08;;;;;;;92.80;40.28;;;6.20;91.00;;;;;;5119943;28;20487;-39
2022/02/17 01:40:35;;;;;;;90.38;37.38;;;6.20;91.10;;;;;;5120376;28;20466;-37
2022/02/17 01:43:01;;;;;;;90.30;39.75;;;6.20;91.10;;;;;;5120279;28;20327;-40
2022/02/17 01:45:26;;;;;;;87.78;39.10;;;6.20;91.10;;;;;;5120565;28;20106;-36
2022/02/17 01:47:52;;;;;;;85.82;37.00;;;6.20;91.10;;;;;;5119949;28;20096;-39
2022/02/17 01:50:18;;;;;;;87.63;39.35;;;6.20;91.10;;;;;;5120106;28;20384;-38
2022/02/17 01:52:45;;;;;;;99.03;40.78;;;6.20;91.10;;;;;;5120226;28;20063;-40
2022/02/17 01:55:11;;;;;;;87.50;39.65;;;6.20;91.00;;;;;;5120224;28;20032;-40
2022/02/17 01:57:40;;;;;;;81.75;38.42;;;6.20;91.00;;;;;;5119859;28;20327;-40
2022/02/17 02:00:06;;;;;;;86.20;37.90;;;6.20;90.90;;;;;;5120160;27;20119;-36
2022/02/17 02:02:32;;;;;;;90.40;38.75;;;6.20;90.90;;;;;;5119839;28;20043;-39
2022/02/17 02:04:58;;;;;;;90.97;38.00;;;6.20;90.90;;;;;;5119983;28;20039;-38
2022/02/17 02:07:23;;;;;;;90.70;38.30;;;6.20;90.90;;;;;;5119563;28;20434;-37
2022/02/17 02:09:50;;;;;;;82.03;38.33;;;6.20;90.90;;;;;;5119716;28;20031;-41
2022/02/17 02:12:16;;;;;;;84.57;38.70;;;6.20;90.90;;;;;;5119790;28;20027;-40
2022/02/17 02:14:56;;;;;;;81.85;36.50;;;6.20;90.90;;;;;;5119702;28;20387;-37
2022/02/17 02:17:23;;;;;;;94.38;39.85;;;6.20;90.90;;;;;;5119244;28;20028;-39
2022/02/17 02:19:50;;;;;;;83.97;38.13;;;6.20;91.00;;;;;;5119851;28;20040;-39
2022/02/17 02:22:16;;;;;;;87.68;39.78;;;6.20;91.00;;;;;;5119333;28;20035;-40
2022/02/17 02:24:42;;;;;;;80.90;37.45;;;6.20;91.00;;;;;;5119568;28;20035;-39
2022/02/17 02:27:13;;;;;;;83.60;38.53;;;6.20;91.00;;;;;;5119317;28;20042;-37
2022/02/17 02:29:38;;;;;;;;;;;6.30;91.00;;;;;;5120080;28;20315;-36
2022/02/17 02:32:05;;;;;;;88.47;38.38;;;6.30;90.90;;;;;;5119030;28;20010;-38
2022/02/17 02:34:30;;;;;;;83.60;37.88;;;6.30;91.00;;;;;;5119641;28;20327;-36
2022/02/17 02:36:56;;;;;;;85.50;34.40;;;6.30;91.10;;;;;;5118839;28;20036;-39
2022/02/17 02:39:21;;;;;;;89.25;38.53;;;6.30;91.10;;;;;;5119258;28;20028;-37
2022/02/17 02:41:47;;;;;;;87.05;37.40;;;6.30;91.10;;;;;;5119209;28;20420;-36
2022/02/17 02:44:13;;;;;;;82.78;36.53;;;6.30;91.10;;;;;;5119364;28;20430;-36
2022/02/17 02:46:38;;;;;;;93.88;37.20;;;6.30;91.10;;;;;;5118821;28;20122;-40
2022/02/17 02:49:05;;;;;;;85.53;37.33;;;6.40;91.00;;;;;;5118042;28;20034;-39
2022/02/17 02:51:30;;;;;;;89.18;38.72;;;6.30;91.00;;;;;;5119344;28;20149;-39
2022/02/17 02:53:56;;;;;;;84.93;36.65;;;6.30;91.00;;;;;;5118487;28;20442;-39
2022/02/17 02:56:22;;;;;;;89.85;36.38;;;6.30;90.90;;;;;;5119271;28;20119;-39
2022/02/17 02:58:48;;;;;;;85.05;35.70;;;6.30;91.00;;;;;;5118933;28;20040;-39
2022/02/17 03:01:14;;;;;;;79.60;36.75;;;6.30;91.00;;;;;;5119227;28;20406;-39
2022/02/17 03:03:39;;;;;;;81.82;36.88;;;6.40;91.20;;;;;;5118621;28;20059;-36
2022/02/17 03:06:05;;;;;;;87.00;36.17;;;6.30;91.10;;;;;;5119094;28;20073;-40
2022/02/17 03:08:31;;;;;;;83.22;36.10;;;6.40;91.10;;;;;;5118660;28;20027;-36
2022/02/17 03:10:56;;;;;;;77.78;34.88;;;6.40;91.10;;;;;;5118976;28;20041;-40
2022/02/17 03:13:22;;;;;;;80.72;35.85;;;6.40;91.10;;;;;;5118221;28;20048;-39
2022/02/17 03:15:47;;;;;;;82.35;35.42;;;6.40;91.10;;;;;;5118670;28;20042;-40
2022/02/17 03:18:13;;;;;;;74.57;33.88;;;6.40;91.00;;;;;;5118307;28;20030;-39
2022/02/17 03:20:40;;;;;;;74.70;32.85;;;6.50;91.00;;;;;;5118753;28;20035;-40
2022/02/17 03:23:06;;;;;;;77.15;35.17;;;6.50;90.90;;;;;;5118380;28;20040;-40
2022/02/17 03:25:31;;;;;;;78.82;36.53;;;6.50;90.90;;;;;;5118668;28;20426;-36
2022/02/17 03:27:57;;;;;;;74.80;34.67;;;6.50;90.80;;;;;;5118297;28;20036;-39
2022/02/17 03:30:23;;;;;;;77.43;35.60;;;6.50;90.80;;;;;;5118505;28;20031;-37
2022/02/17 03:32:48;;;;;;;78.65;34.60;;;6.50;90.70;;;;;;5117833;28;20035;-36
2022/02/17 03:35:14;;;;;;;77.38;35.20;;;6.50;90.70;;;;;;5118599;28;20046;-36
2022/02/17 03:37:40;;;;;;;72.43;35.03;;;6.50;90.70;;;;;;5117671;28;20028;-37
2022/02/17 03:40:06;;;;;;;79.03;35.67;;;6.50;90.70;;;;;;5118197;28;20034;-39
2022/02/17 03:42:32;;;;;;;79.85;35.97;;;6.50;90.70;;;;;;5117598;28;20503;-39
2022/02/17 03:44:58;;;;;;;77.80;34.40;;;6.50;90.70;;;;;;5117769;28;20131;-36
2022/02/17 03:47:23;;;;;;;71.05;33.63;;;6.50;90.80;;;;;;5117890;28;20074;-41
2022/02/17 03:49:49;;;;;;;76.53;36.38;;;6.50;90.80;;;;;;5117891;28;20389;-38
2022/02/17 03:52:15;;;;;;;82.90;36.10;;;6.50;90.80;;;;;;5117816;28;20323;-39
2022/02/17 03:54:40;;;;;;;73.95;35.03;;;6.50;90.80;;;;;;5117862;28;20035;-40
2022/02/17 03:57:06;;;;;;;73.22;34.13;;;6.50;90.80;;;;;;5117152;28;20043;-40
2022/02/17 03:59:31;;;;;;;74.35;34.72;;;6.50;90.70;;;;;;5117877;28;20032;-38
2022/02/17 04:01:58;;;;;;;70.38;33.42;;;6.50;90.70;;;;;;5117213;28;20039;-39
2022/02/17 04:04:23;;;;;;;72.30;35.05;;;6.50;90.70;;;;;;5117805;28;20043;-39
2022/02/17 04:06:49;;;;;;;69.88;32.55;;;6.50;90.70;;;;;;5117287;28;20249;-37
2022/02/17 04:09:15;;;;;;;68.88;33.40;;;6.50;90.70;;;;;;5117657;28;20050;-39
2022/02/17 04:11:41;;;;;;;68.65;31.45;;;6.50;90.70;;;;;;5117174;28;20034;-37
2022/02/17 04:14:06;;;;;;;71.50;32.72;;;6.50;90.80;;;;;;5117109;28;20435;-37
2022/02/17 04:16:32;;;;;;;71.68;32.90;;;6.50;90.80;;;;;;5117008;28;20028;-39
2022/02/17 04:18:58;;;;;;;71.32;32.63;;;6.50;90.80;;;;;;5116863;28;20065;-39
2022/02/17 04:21:24;;;;;;;66.55;33.40;;;6.50;90.70;;;;;;5116874;28;20107;-37
2022/02/17 04:23:50;;;;;;;63.95;33.13;;;6.50;90.80;;;;;;5117566;28;20032;-36
2022/02/17 04:26:19;;;;;;;70.15;32.75;;;6.50;90.80;;;;;;5117298;28;20016;-38
2022/02/17 04:28:46;;;;;;;74.57;33.53;;;6.50;90.80;;;;;;5116702;28;20408;-36
2022/02/17 04:31:12;;;;;;;72.60;33.92;;;6.60;90.70;;;;;;5116767;28;20044;-36
2022/02/17 04:33:39;;;;;;;69.78;34.00;;;6.60;90.70;;;;;;5116890;28;20035;-39
2022/02/17 04:36:06;;;;;;;67.82;32.83;;;6.60;90.70;;;;;;5117149;28;20023;-36
2022/02/17 04:38:32;;;;;;;72.45;33.78;;;6.60;90.70;;;;;;5116988;28;20416;-36
2022/02/17 04:43:44;;;;;;;73.35;34.70;;;6.60;90.70;;;;;;5116910;28;20172;-40
2022/02/17 04:46:11;;;;;;;74.78;33.25;;;6.60;90.60;;;;;;5117041;28;20456;-36
2022/02/17 04:48:37;;;;;;;70.78;31.13;;;6.60;90.60;;;;;;5116154;28;20039;-40
2022/02/17 04:51:03;;;;;;;68.15;33.20;;;6.60;90.80;;;;;;5116937;28;20350;-39
2022/02/17 04:53:29;;;;;;;74.00;34.55;;;6.60;90.60;;;;;;5116394;28;20110;-37
2022/02/17 04:55:55;;;;;;;79.00;37.30;;;6.60;90.60;;;;;;5116855;28;20027;-36
2022/02/17 04:58:23;;;;;;;73.30;36.58;;;6.60;90.60;;;;;;5116620;28;20301;-36
2022/02/17 05:00:49;;;;;;;69.60;32.33;;;6.60;90.50;;;;;;5116642;28;20023;-36
2022/02/17 05:03:15;;;;;;;74.55;33.67;;;6.60;90.60;;;;;;5116154;28;20028;-36
2022/02/17 05:05:41;;;;;;;74.13;36.40;;;6.60;90.60;;;;;;5116739;28;20020;-39
2022/02/17 05:08:07;;;;;;;77.35;35.47;;;6.60;90.60;;;;;;5116444;28;20036;-38
2022/02/17 05:10:33;;;;;;;75.45;35.17;;;6.60;90.60;;;;;;5116754;28;20334;-36
2022/02/17 05:12:59;;;;;;;75.45;35.55;;;6.60;90.60;;;;;;5115471;28;20390;-36
2022/02/17 05:15:25;;;;;;;73.65;34.95;;;6.60;90.60;;;;;;5116740;28;20079;-40
2022/02/17 05:17:50;;;;;;;80.28;37.63;;;6.60;90.80;;;;;;5116099;28;20304;-37
2022/02/17 05:20:16;;;;;;;81.20;36.17;;;6.60;90.60;;;;;;5116480;28;20529;-38
2022/02/17 05:22:43;;;;;;;74.68;36.20;;;6.50;90.60;;;;;;5115977;28;20418;-39
2022/02/17 05:25:10;;;;;;;83.68;37.67;;;6.60;90.70;;;;;;5116402;28;20039;-36
2022/02/17 05:27:36;;;;;;;75.95;37.05;;;6.60;90.70;;;;;;5116191;28;20036;-36
2022/02/17 05:30:01;;;;;;;76.88;36.10;;;6.60;90.70;;;;;;5116128;28;20422;-37
2022/02/17 05:32:27;;;;;;;77.57;35.92;;;6.60;90.60;;;;;;5116205;28;20028;-39
2022/02/17 05:34:53;;;;;;;77.65;37.97;;;6.60;90.50;;;;;;5115970;28;20053;-40
2022/02/17 05:37:18;;;;;;;76.45;36.55;;;6.60;90.60;;;;;;5115597;28;20028;-37
2022/02/17 05:39:44;;;;;;;80.50;38.45;;;6.60;90.40;;;;;;5114989;28;20023;-36
2022/02/17 05:42:09;;;;;;;78.15;37.58;;;6.70;90.50;;;;;;5115747;28;20211;-39
2022/02/17 05:44:35;;;;;;;76.72;36.08;;;6.70;90.30;;;;;;5115631;28;20027;-40
2022/02/17 05:47:01;;;;;;;82.63;37.28;;;6.70;90.30;;;;;;5115334;28;20119;-39
2022/02/17 05:49:27;;;;;;;78.75;33.60;;;6.70;90.30;;;;;;5115713;28;20024;-36
2022/02/17 05:51:52;;;;;;;77.43;36.65;;;6.70;90.20;;;;;;5115487;28;20020;-39
2022/02/17 05:54:18;;;;;;;89.97;39.95;;;6.70;90.10;;;;;;5115840;28;20103;-36
2022/02/17 05:56:44;;;;;;;85.05;39.28;;;6.70;90.10;;;;;;5115942;28;20110;-40
2022/02/17 05:59:09;;;;;;;82.47;36.10;;;6.70;90.20;;;;;;5115591;28;20024;-36
2022/02/17 06:01:35;;;;;;;78.90;35.65;;;6.80;90.10;;;;;;5116004;28;20057;-39
2022/02/17 06:04:01;;;;;;;84.82;36.60;;;6.80;90.00;;;;;;5115586;28;20024;-36
2022/02/17 06:06:26;;;;;;;78.53;34.42;;;6.70;90.00;;;;;;5115769;28;20288;-37
2022/02/17 06:08:52;;;;;;;88.88;39.03;;;6.80;90.00;;;;;;5115066;28;20034;-36
2022/02/17 06:11:18;;;;;;;76.93;38.03;;;6.80;90.00;;;;;;5115992;28;20080;-39
2022/02/17 06:13:43;;;;;;;77.30;36.47;;;6.80;90.00;;;;;;5115015;28;20055;-37
2022/02/17 06:16:09;;;;;;;78.90;37.38;;;6.80;90.00;;;;;;5115962;28;20115;-36
2022/02/17 06:18:35;;;;;;;77.15;35.35;;;6.80;89.80;;;;;;5115694;28;20117;-36
2022/02/17 06:21:00;;;;;;;84.50;37.90;;;6.90;89.80;;;;;;5115972;28;20032;-39
2022/02/17 06:23:26;;;;;;;76.63;36.80;;;6.90;89.60;;;;;;5116174;28;20038;-39
2022/02/17 06:25:53;;;;;;;86.20;37.95;;;6.90;89.50;;;;;;5119306;28;20081;-36
2022/02/17 06:28:19;;;;;;;80.10;37.58;;;6.90;89.50;;;;;;5119058;28;20031;-37
2022/02/17 06:30:45;;;;;;;82.60;37.50;;;6.90;89.50;;;;;;5119195;28;20027;-40
2022/02/17 06:33:11;;;;;;;81.28;36.72;;;6.90;89.50;;;;;;5116206;28;20407;-37
2022/02/17 06:35:38;;;;;;;79.15;35.28;;;6.90;89.40;;;;;;5119212;28;20366;-37
2022/02/17 06:38:05;;;;;;;72.88;36.75;;;6.90;89.40;;;;;;5118386;28;20039;-37
2022/02/17 06:40:32;;;;;;;80.88;37.00;;;6.90;89.50;;;;;;5118867;28;20084;-39
2022/02/17 06:43:09;;;;;;;85.85;40.13;;;6.90;89.70;;;;;;5118517;28;20446;-41
2022/02/17 06:45:37;;;;;;;81.65;36.65;;;6.90;89.50;;;;;;5119214;28;20035;-41
2022/02/17 06:48:04;;;;;;;81.35;37.95;;;7.00;89.20;;;;;;5118208;28;20076;-37
2022/02/17 06:50:30;;;;;;;83.35;36.17;;;7.00;89.20;;;;;;5118747;28;20020;-38
2022/02/17 06:52:56;;;;;;;75.68;37.13;;;7.00;89.10;;;;;;5118277;28;20261;-39
2022/02/17 06:55:22;;;;;;;86.45;37.55;;;7.00;89.00;;;;;;5118141;28;20123;-37
2022/02/17 06:57:47;;;;;;;80.95;37.30;;;7.00;89.00;;;;;;5117850;28;20089;-40
2022/02/17 07:00:14;;;;;;;79.15;35.60;;;7.00;88.60;;;;;;5117911;28;20051;-40
2022/02/17 07:02:39;;;;;;;81.55;33.60;;;7.10;88.60;;;;;;5118173;28;20038;-40
2022/02/17 07:05:06;;;;;;;70.35;33.03;;;7.10;88.40;;;;;;5117797;28;20032;-41
2022/02/17 07:07:35;;;;;;;80.70;37.35;;;7.10;88.30;;;;;;5117584;27;20032;-38
2022/02/17 07:10:02;;;;;;;78.50;38.20;;;7.10;88.30;;;;;;5118152;28;20032;-36
2022/02/17 07:12:28;;;;;;;74.20;36.30;;;7.10;87.90;;;;;;5117717;28;20039;-37
2022/02/17 07:14:57;;;;;;;77.50;38.83;;;7.20;87.90;;;;;;5118020;28;20088;-41
2022/02/17 07:17:23;;;;;;;84.00;37.03;;;7.20;87.80;;;;;;5117607;28;20068;-37
2022/02/17 07:19:49;;;;;;;76.50;35.75;;;7.20;87.60;;;;;;5117872;28;20043;-37
2022/02/17 07:22:14;;;;;;;77.53;36.85;;;7.20;87.60;;;;;;5117576;28;20047;-39
2022/02/17 07:24:40;;;;;;;81.38;37.53;;;7.20;87.60;;;;;;5118057;28;20031;-37
2022/02/17 07:27:06;;;;;;;80.93;36.03;;;7.20;87.50;;;;;;5117483;28;20035;-41
2022/02/17 07:29:32;;;;;;;81.43;36.53;;;7.20;87.30;;;;;;5116561;28;20094;-41
2022/02/17 07:31:57;;;;;;;72.03;35.78;;;7.20;87.20;;;;;;5117590;28;20043;-39
2022/02/17 07:34:23;;;;;;;82.00;36.72;;;7.30;87.10;;;;;;5117595;28;20481;-37
2022/02/17 07:36:49;;;;;;;73.65;34.67;;;7.30;87.00;;;;;;5117353;28;20411;-42
2022/02/17 07:39:15;;;;;;;79.97;38.47;;;7.30;87.00;;;;;;5117644;28;20097;-37
2022/02/17 07:41:41;;;;;;;76.50;36.10;;;7.40;86.70;;;;;;5117746;28;20047;-44
2022/02/17 07:44:08;;;;;;;70.78;33.45;;;7.30;86.60;;;;;;5117402;28;20301;-38
2022/02/17 07:46:34;;;;;;;77.03;34.45;;;7.40;86.70;;;;;;5117689;28;20040;-41
2022/02/17 07:49:01;;;;;;;85.18;38.63;;;7.40;86.30;;;;;;5117122;27;20069;-41
2022/02/17 07:51:30;;;;;;;83.45;38.13;;;7.40;86.00;;;;;;5110943;28;20043;-37
2022/02/17 07:53:56;;;;;;;85.80;41.05;;;7.40;86.00;;;;;;5096149;28;20436;-41
2022/02/17 07:56:22;;;;;;;82.35;39.97;;;7.40;86.00;;;;;;5096880;28;20040;-37
2022/02/17 07:58:48;;;;;;;76.30;33.53;;;7.50;86.20;;;;;;5096696;28;20036;-42
2022/02/17 08:01:13;;;;;;;91.30;39.47;;;7.50;85.90;;;;;;5097017;28;20111;-37
2022/02/17 08:03:39;;;;;;;88.88;38.90;;;7.60;85.80;;;;;;5097791;28;20036;-37
2022/02/17 08:06:07;;;;;;;83.88;37.67;;;7.60;85.60;;;;;;5116877;28;20031;-37
2022/02/17 08:08:33;;;;;;;88.38;39.20;;;7.60;85.40;;;;;;5116269;28;20047;-37
2022/02/17 08:10:59;;;;;;;77.70;35.83;;;7.60;85.20;;;;;;5116927;28;20114;-41
2022/02/17 08:13:24;;;;;;;78.90;36.55;;;7.70;84.70;;;;;;5116285;27;20130;-41
2022/02/17 08:15:52;;;;;;;77.47;39.10;;;7.70;84.50;;;;;;5116889;28;20400;-40
2022/02/17 08:18:18;;;;;;;79.10;38.25;;;7.60;84.30;;;;;;5116337;28;20035;-37
2022/02/17 08:20:45;;;;;;;73.97;34.53;;;7.70;84.40;;;;;;5116221;28;20376;-41
2022/02/17 08:23:11;;;;;;;76.45;37.38;;;7.70;84.50;;;;;;5116015;28;20088;-41
2022/02/17 08:25:40;;;;;;;69.07;33.55;;;7.70;84.10;;;;;;5114928;28;20358;-38
2022/02/17 08:28:06;;;;;;;73.45;34.88;;;7.70;83.80;;;;;;5116187;28;20047;-37
2022/02/17 08:30:35;;;;;;;75.95;36.10;;;7.70;83.50;;;;;;5116772;28;20024;-39
2022/02/17 08:33:01;;;;;;;71.50;35.83;;;7.70;83.50;;;;;;5116691;28;20343;-37
2022/02/17 08:35:29;;;;;;;77.10;36.17;;;7.70;83.60;;;;;;5116766;28;20015;-37
2022/02/17 08:37:56;;;;;;;74.30;37.15;;;7.80;83.80;;;;;;5116309;28;20350;-37
2022/02/17 08:40:23;;;;;;;75.05;35.00;;;7.80;84.00;;;;;;5113474;28;20257;-37
2022/02/17 08:42:49;;;;;;;70.43;34.35;;;7.90;83.40;;;;;;5116207;28;20032;-37
2022/02/17 08:45:15;;;;;;;75.55;36.78;;;7.90;83.00;;;;;;5115998;28;20027;-41
2022/02/17 08:47:41;;;;;;;70.95;37.38;;;7.90;82.80;;;;;;5115396;28;20039;-37
2022/02/17 08:50:09;;;;;;;76.22;36.20;;;7.90;83.00;;;;;;5116370;28;20027;-37
2022/02/17 08:52:36;;;;;;;68.88;35.38;;;7.90;82.50;;;;;;5116053;28;20035;-37
2022/02/17 08:55:01;;;;;;;92.63;41.97;;;7.90;82.20;;;;;;5116114;28;20046;-36
2022/02/17 08:57:27;;;;;;;68.57;37.40;;;7.90;82.40;;;;;;5115783;28;20115;-38
2022/02/17 08:59:53;;;;;;;75.68;38.10;;;8.00;82.70;;;;;;5115853;28;20042;-41
2022/02/17 09:02:18;;;;;;;79.20;36.67;;;8.00;82.70;;;;;;5112864;28;20220;-37
2022/02/17 09:04:44;;;;;;;70.40;34.95;;;8.00;82.30;;;;;;5115571;28;20031;-37
2022/02/17 09:07:10;;;;;;;65.32;31.17;;;8.10;82.40;;;;;;5114822;28;20479;-41
2022/02/17 09:09:35;;;;;;;66.82;34.00;;;8.10;81.80;;;;;;5115095;28;20277;-41
2022/02/17 09:12:01;;;;;;;64.63;33.28;;;8.10;81.40;;;;;;5113587;28;20035;-37
2022/02/17 09:14:26;;;;;;;64.85;33.13;;;8.10;81.20;;;;;;5113452;28;20051;-40
2022/02/17 09:16:53;;;;;;;61.40;31.15;;;8.10;81.40;;;;;;5114463;28;20032;-41
2022/02/17 09:19:19;;;;;;;61.25;31.30;;;8.10;81.10;;;;;;5115708;28;20063;-41
2022/02/17 09:21:44;;;;;;;66.68;32.28;;;8.10;81.10;;;;;;5114942;28;20063;-40
2022/02/17 09:24:10;;;;;;;64.88;33.22;;;8.10;81.30;;;;;;5115425;28;20024;-37
2022/02/17 09:26:36;;;;;;;58.95;30.15;;;8.10;81.40;;;;;;5115644;28;20024;-37
2022/02/17 09:29:03;;;;;;;63.88;31.17;;;8.10;81.00;;;;;;5114857;28;20144;-37
2022/02/17 09:31:29;;;;;;;60.70;31.08;;;8.10;80.70;;;;;;5115192;28;20031;-37
2022/02/17 09:33:54;;;;;;;54.55;26.77;;;8.10;80.90;;;;;;5115627;28;20325;-41
2022/02/17 09:36:25;;;;;;;59.22;30.35;;;8.10;80.90;;;;;;5115725;28;20051;-37
2022/02/17 09:38:51;;;;;;;54.25;29.23;;;8.10;81.10;;;;;;5115196;28;20032;-42
2022/02/17 09:41:20;;;;;;;59.15;30.13;;;8.10;80.80;;;;;;5115581;28;20043;-37
2022/02/17 09:43:46;;;;;;;61.90;31.13;;;8.10;81.20;;;;;;5115326;28;20043;-37
2022/02/17 09:46:21;;;;;;;53.40;27.85;;;8.20;81.10;;;;;;5115721;28;20324;-37
2022/02/17 09:49:12;;;;;;;58.60;29.30;;;8.20;80.90;;;;;;5115436;28;20027;-37
2022/02/17 09:51:37;;;;;;;;;;;8.30;80.50;;;;;;5115372;28;20055;-41
2022/02/17 09:54:03;;;;;;;65.60;32.97;;;8.30;80.90;;;;;;5111275;28;19919;-37
2022/02/17 09:56:29;;;;;;;55.45;29.95;;;8.40;80.40;;;;;;5114642;28;20040;-41
2022/02/17 09:58:55;;;;;;;79.43;35.67;;;8.40;80.50;;;;;;5118049;28;20089;-53
2022/02/17 10:01:26;;;;;;;53.58;28.75;;;8.40;80.00;;;;;;5119513;28;20028;-37
2022/02/17 10:04:17;;;;;;;58.90;28.98;;;8.40;79.70;;;;;;5119059;28;20325;-42
2022/02/17 10:07:03;;;;;;;57.28;28.90;;;8.40;79.60;;;;;;5118886;28;20044;-41
2022/02/17 10:09:40;;;;;;;58.97;27.77;;;8.30;79.80;;;;;;5118971;28;20320;-42
2022/02/17 10:12:09;;;;;;;52.83;27.13;;;8.30;79.60;;;;;;5118793;28;20106;-41
2022/02/17 10:14:35;;;;;;;60.70;26.52;;;8.30;80.00;;;;;;5118439;28;20282;-37
2022/02/17 10:17:04;;;;;;;52.92;26.40;;;8.20;80.00;;;;;;5118564;28;20051;-41
2022/02/17 10:19:39;;;;;;;48.90;27.33;;;8.30;79.90;;;;;;5118935;28;20310;-39
2022/02/17 10:22:10;;;;;;;53.88;27.80;;;8.30;79.80;;;;;;5118729;28;20339;-43
2022/02/17 10:24:39;;;;;;;51.33;27.75;;;8.30;79.80;;;;;;5118893;28;20067;-37
2022/02/17 10:27:12;;;;;;;51.58;28.58;;;8.30;79.90;;;;;;5118665;28;20036;-37
2022/02/17 10:29:39;;;;;;;52.53;27.30;;;8.30;80.10;;;;;;5118647;28;20114;-37
2022/02/17 10:32:10;;;;;;;51.10;26.27;;;8.30;80.30;;;;;;5118751;28;20693;-37
2022/02/17 10:34:36;;;;;;;54.67;26.58;;;8.30;80.50;;;;;;5118395;28;20084;-37
2022/02/17 10:37:02;;;;;;;51.20;27.75;;;8.40;80.10;;;;;;5117888;28;20419;-41
2022/02/17 10:39:33;;;;;;;47.22;26.50;;;8.40;80.00;;;;;;5118305;28;20102;-38
2022/02/17 10:42:04;;;;;;;45.47;24.98;;;8.40;79.90;;;;;;5116094;28;20064;-42
2022/02/17 10:44:35;;;;;;;50.03;26.17;;;8.50;79.40;;;;;;5118461;28;20431;-37
2022/02/17 10:47:13;;;;;;;53.33;27.90;;;8.50;79.50;;;;;;5118294;28;20035;-42
2022/02/17 10:49:44;;;;;;;48.58;25.60;;;8.50;79.50;;;;;;5118199;28;20028;-38
2022/02/17 10:52:10;;;;;;;47.15;24.85;;;8.50;79.50;;;;;;5117736;28;20031;-40
2022/02/17 10:54:36;;;;;;;46.53;25.25;;;8.60;79.50;;;;;;5114020;28;20436;-38
2022/02/17 10:57:04;;;;;;;45.60;22.98;;;8.60;79.40;;;;;;5117709;27;20360;-42
2022/02/17 11:02:22;;;;;;;47.67;24.77;;;8.70;78.70;;;;;;5118022;28;20054;-43
2022/02/17 11:04:49;;;;;;;46.15;24.30;;;8.70;78.60;;;;;;5118119;28;20351;-41
2022/02/17 11:07:16;;;;;;;46.15;23.08;;;8.70;78.40;;;;;;5118182;28;20386;-42
2022/02/17 11:09:42;;;;;;;48.55;26.15;;;8.80;78.30;;;;;;5117082;27;20077;-41
2022/02/17 11:12:08;;;;;;;40.42;22.23;;;8.80;78.20;;;;;;5117833;28;20174;-42
2022/02/17 11:14:41;;;;;;;43.80;21.92;;;8.80;78.10;;;;;;5116975;28;20051;-42
2022/02/17 11:17:11;;;;;;;43.88;24.27;;;8.70;78.00;;;;;;5117392;28;20081;-37
2022/02/17 11:19:37;;;;;;;41.47;22.42;;;8.70;78.20;;;;;;5117674;28;20053;-42
2022/02/17 11:22:03;;;;;;;50.65;24.75;;;8.70;78.30;;;;;;5117436;28;20038;-42
2022/02/17 11:24:29;;;;;;;44.63;23.48;;;8.70;78.40;;;;;;5117566;28;20035;-37
2022/02/17 11:27:05;;;;;;;43.97;22.02;;;8.80;78.70;;;;;;5117467;28;20035;-39
2022/02/17 11:29:33;;;;;;;40.05;20.70;;;8.80;78.30;;;;;;5116706;28;20463;-42
2022/02/17 11:32:07;;;;;;;41.47;21.92;;;8.80;78.50;;;;;;5117188;28;20028;-38
2022/02/17 11:34:45;;;;;;;45.13;23.05;;;8.80;78.30;;;;;;5117356;28;20392;-37
2022/02/17 11:37:25;;;;;;;39.83;23.45;;;8.80;78.40;;;;;;5117004;28;20383;-41
2022/02/17 11:40:04;;;;;;;40.47;22.80;;;8.80;78.30;;;;;;5117323;27;20077;-41
2022/02/17 11:42:36;;;;;;;43.92;23.15;;;8.90;78.40;;;;;;5116974;28;20034;-37
2022/02/17 11:45:14;;;;;;;42.63;24.88;;;8.90;78.50;;;;;;5117366;28;20089;-41
2022/02/17 11:48:04;;;;;;;43.50;24.00;;;9.00;78.50;;;;;;5116869;28;20038;-38
2022/02/17 11:50:30;;;;;;;43.30;23.92;;;9.00;78.60;;;;;;5117411;28;20084;-42
2022/02/17 11:53:21;;;;;;;41.95;24.50;;;9.00;78.60;;;;;;5116529;28;20031;-41
2022/02/17 11:55:47;;;;;;;;;;;9.10;78.40;;;;;;5117926;27;20106;-41
2022/02/17 11:58:38;;;;;;;41.83;23.45;;;9.20;78.20;;;;;;5117283;28;19995;-42
2022/02/17 12:01:27;;;;;;;40.40;22.40;;;9.20;78.70;;;;;;5116633;28;20432;-37
2022/02/17 12:04:17;;;;;;;40.00;22.23;;;9.30;78.90;;;;;;5103456;28;20035;-37
2022/02/17 12:07:03;;;;;;;45.67;23.77;;;9.50;79.30;;;;;;5096106;28;20062;-39
2022/02/17 12:09:39;;;;;;;38.90;23.08;;;9.80;77.90;;;;;;5096068;28;20048;-41
2022/02/17 12:12:16;;;;;;;41.95;24.17;;;9.90;77.80;;;;;;5096188;28;20036;-42
2022/02/17 12:14:53;;;;;;;40.63;21.25;;;10.00;76.50;;;;;;5095011;28;20450;-38
2022/02/17 12:17:29;;;;;;;35.67;20.95;;;10.20;76.70;;;;;;5095426;28;20028;-41
2022/02/17 12:20:07;;;;;;;41.88;21.67;;;10.20;75.80;;;;;;5095180;28;20139;-41
2022/02/17 12:22:34;;;;;;;38.38;20.83;;;10.30;75.80;;;;;;5096016;28;20036;-37
2022/02/17 12:25:21;;;;;;;40.95;22.10;;;10.40;75.50;;;;;;5095913;28;20404;-37
2022/02/17 12:28:08;;;;;;;37.70;22.95;;;10.50;75.50;;;;;;5095800;28;20042;-37
2022/02/17 12:30:35;;;;;;;41.55;22.80;;;10.60;75.20;;;;;;5096331;28;20427;-38
2022/02/17 12:33:04;;;;;;;44.15;22.88;;;10.70;75.80;;;;;;5095625;28;20028;-42
2022/02/17 12:35:30;;;;;;;34.22;20.88;;;10.70;75.20;;;;;;5096172;28;20024;-38
2022/02/17 12:38:03;;;;;;;40.85;21.85;;;10.80;75.20;;;;;;5095765;28;20031;-42
2022/02/17 12:40:29;;;;;;;41.13;22.15;;;10.90;75.20;;;;;;5096269;28;20097;-38
2022/02/17 12:42:55;;;;;;;36.10;20.90;;;11.00;75.10;;;;;;5095409;28;20081;-37